Time;durP1;ratioP1;P1;durP2;ratioP2;P2;SDS_P1;SDS_P2;PMS_P1;PMS_P2;Temp;Humidity;BMP_temperature;BMP_pressure;BME280_temperature;BME280_humidity;BME280_pressure;Samples;Min_cycle;Max_cycle;Signal;HPM_P1;HPM_P2
2022/01/20 00:02:19;;;;;;;;;;;;;;;21.48;38.64;102851.91;7280787;19;152264;-52
2022/01/20 00:04:52;;;;;;;;;;;;;;;21.46;38.53;102854.97;7279089;19;152621;-51
2022/01/20 00:28:14;;;;;;;;;;;;;;;21.28;38.84;102861.00;7290388;19;153332;-49
2022/01/20 00:30:48;;;;;;;;;;;;;;;21.26;39.29;102866.88;7281300;19;152762;-49
2022/01/20 00:33:31;;;;;;;;;;;;;;;21.24;39.11;102862.66;7280749;19;152314;-50
2022/01/20 00:38:36;;;;;;;;;;;;;;;21.19;39.04;102871.03;7282891;19;153336;-49
2022/01/20 00:41:03;;;;;;;;;;;;;;;21.17;39.33;102867.63;7281883;19;153971;-50
2022/01/20 00:43:30;;;;;;;;;;;;;;;21.13;39.29;102867.31;7280418;19;152122;-50
2022/01/20 00:45:57;;;;;;;;;;;;;;;21.11;39.83;102877.09;7283751;19;152796;-50
2022/01/20 00:48:23;;;;;;;;;;;;;;;21.09;39.62;102871.75;7280537;19;154271;-50
2022/01/20 00:50:50;;;;;;;;;;;;;;;21.07;40.05;102871.19;7288943;19;152848;-50
2022/01/20 00:53:17;;;;;;;;;;;;;;;21.04;40.23;102863.25;7279804;19;153835;-50
2022/01/20 00:55:44;;;;;;;;;;;;;;;21.03;40.13;102872.78;7281154;19;152534;-50
2022/01/20 00:58:10;;;;;;;;;;;;;;;20.99;40.09;102868.81;7280833;19;152982;-50
2022/01/20 01:00:37;;;;;;;;;;;;;;;20.97;40.54;102868.25;7282679;19;153444;-50
2022/01/20 01:03:04;;;;;;;;;;;;;;;20.94;40.28;102871.56;7280974;19;152252;-50
2022/01/20 01:05:35;;;;;;;;;;;;;;;20.92;40.57;102878.59;7282594;19;153131;-50
2022/01/20 01:08:01;;;;;;;;;;;;;;;20.89;40.39;102881.94;7279824;19;153689;-50
2022/01/20 01:10:30;;;;;;;;;;;;;;;20.85;40.94;102873.16;7276467;19;152346;-50
2022/01/20 01:13:03;;;;;;;;;;;;;;;20.83;40.94;102883.81;7287067;19;153434;-49
2022/01/20 01:15:35;;;;;;;;;;;;;;;20.81;41.09;102872.84;7283668;19;151716;-50
2022/01/20 01:23:16;;;;;;;;;;;;;;;20.72;41.17;102894.09;7282009;19;151937;-50
2022/01/20 01:25:43;;;;;;;;;;;;;;;20.70;41.11;102893.50;7280974;19;152425;-50
2022/01/20 01:28:10;;;;;;;;;;;;;;;20.67;41.33;102898.81;7278875;19;154246;-50
2022/01/20 01:30:58;;;;;;;;;;;;;;;20.64;41.50;102900.16;7280446;19;152358;-50
2022/01/20 01:33:25;;;;;;;;;;;;;;;20.59;41.17;102897.28;7280488;19;152861;-50
2022/01/20 01:35:56;;;;;;;;;;;;;;;20.57;41.28;102904.28;7285644;19;154056;-50
2022/01/20 01:41:00;;;;;;;;;;;;;;;20.52;41.13;102907.03;7278249;19;153928;-50
2022/01/20 01:43:27;;;;;;;;;;;;;;;20.50;41.12;102906.44;7281002;19;152337;-50
2022/01/20 01:45:54;;;;;;;;;;;;;;;20.47;41.60;102905.00;7280577;19;152216;-50
2022/01/20 01:48:20;;;;;;;;;;;;;;;20.43;41.47;102915.06;7277238;19;153894;-51
2022/01/20 01:50:47;;;;;;;;;;;;;;;20.39;41.42;102914.75;7281046;19;151798;-50
2022/01/20 01:53:16;;;;;;;;;;;;;;;20.37;41.29;102919.75;7283674;19;152918;-50
2022/01/20 01:55:44;;;;;;;;;;;;;;;20.36;41.63;102920.00;7280195;19;152675;-50
2022/01/20 01:58:11;;;;;;;;;;;;;;;20.32;41.55;102910.41;7291163;19;152374;-49
2022/01/20 02:00:37;;;;;;;;;;;;;;;20.28;41.46;102912.00;7281852;19;154196;-50
2022/01/20 02:03:04;;;;;;;;;;;;;;;20.26;41.53;102915.06;7280854;19;152068;-51
2022/01/20 02:05:33;;;;;;;;;;;;;;;20.25;41.51;102920.94;7284257;19;153227;-50
2022/01/20 02:21:01;;;;;;;;;;;;;;;20.10;41.56;102929.97;7286902;19;152785;-50
2022/01/20 02:23:28;;;;;;;;;;;;;;;20.07;41.47;102929.66;7282331;19;151633;-51
2022/01/20 02:25:55;;;;;;;;;;;;;;;20.05;41.58;102934.66;7283179;19;152743;-50
2022/01/20 02:28:22;;;;;;;;;;;;;;;20.01;41.58;102937.13;7279471;19;152815;-50
2022/01/20 02:30:48;;;;;;;;;;;;;;;19.98;41.70;102932.06;7282679;19;151553;-52
2022/01/20 02:33:17;;;;;;;;;;;;;;;19.79;38.33;102917.44;7280321;19;153742;-50
2022/01/20 02:35:46;;;;;;;;;;;;;;;19.76;39.35;102917.91;7280580;19;152871;-50
2022/01/20 02:38:21;;;;;;;;;;;;;;;19.76;40.25;102922.72;7279586;19;151740;-49
2022/01/20 02:45:52;;;;;;;;;;;;;;;19.68;40.93;102923.97;7281169;19;152725;-50
2022/01/20 02:48:19;;;;;;;;;;;;;;;19.67;41.12;102925.06;7279798;19;153461;-50
2022/01/20 02:50:46;;;;;;;;;;;;;;;19.65;40.99;102932.91;7280388;19;152461;-50
2022/01/20 02:53:14;;;;;;;;;;;;;;;19.62;41.36;102926.94;7277348;19;155441;-50
2022/01/20 02:55:41;;;;;;;;;;;;;;;19.60;40.95;102929.16;7280169;19;152049;-50
2022/01/20 02:58:08;;;;;;;;;;;;;;;19.57;41.24;102936.13;7281561;19;151820;-50
2022/01/20 03:00:35;;;;;;;;;;;;;;;19.57;41.25;102936.13;7282199;19;152750;-49
2022/01/20 03:03:03;;;;;;;;;;;;;;;19.56;41.57;102940.03;7288687;19;153723;-50
2022/01/20 03:05:31;;;;;;;;;;;;;;;19.55;41.92;102941.13;7287098;19;153480;-50
2022/01/20 03:08:02;;;;;;;;;;;;;;;19.52;41.61;102944.44;7285255;19;153731;-49
2022/01/20 03:10:29;;;;;;;;;;;;;;;19.52;42.02;102952.84;7283930;19;152535;-50
2022/01/20 03:12:56;;;;;;;;;;;;;;;19.49;41.75;102936.53;7281335;19;153244;-50
2022/01/20 03:15:25;;;;;;;;;;;;;;;19.47;41.99;102941.53;7285918;19;153845;-50
2022/01/20 03:17:51;;;;;;;;;;;;;;;19.46;42.25;102934.22;7285079;19;152669;-50
2022/01/20 03:20:18;;;;;;;;;;;;;;;19.44;42.10;102944.88;7285556;19;152060;-51
2022/01/20 03:22:45;;;;;;;;;;;;;;;19.44;42.33;102954.09;7284376;19;153545;-49
2022/01/20 03:25:15;;;;;;;;;;;;;;;19.43;42.73;102954.34;7292821;19;152200;-50
2022/01/20 03:27:42;;;;;;;;;;;;;;;19.42;42.75;102961.03;7286580;19;153428;-50
2022/01/20 03:30:10;;;;;;;;;;;;;;;19.40;42.80;102961.28;7284020;19;151702;-50
2022/01/20 03:32:37;;;;;;;;;;;;;;;19.38;43.10;102969.09;7285335;19;154578;-50
2022/01/20 03:35:07;;;;;;;;;;;;;;;19.38;42.83;102973.88;7285578;19;152470;-50
2022/01/20 03:37:35;;;;;;;;;;;;;;;19.38;43.02;102979.47;7284413;19;151989;-51
2022/01/20 03:40:02;;;;;;;;;;;;;;;19.37;42.99;102969.34;7284497;19;152488;-50
2022/01/20 03:42:29;;;;;;;;;;;;;;;19.34;43.10;102967.06;7283059;19;154004;-49
2022/01/20 03:44:56;;;;;;;;;;;;;;;19.33;43.37;102982.16;7282529;19;152354;-49
2022/01/20 03:47:25;;;;;;;;;;;;;;;19.30;43.58;102991.09;7293274;19;153389;-50
2022/01/20 03:52:29;;;;;;;;;;;;;;;19.27;43.64;102998.03;7283821;19;153997;-50
2022/01/20 03:54:56;;;;;;;;;;;;;;;19.25;43.36;102994.63;7284600;19;154315;-50
2022/01/20 03:57:23;;;;;;;;;;;;;;;19.24;43.58;102992.06;7283151;19;152548;-50
2022/01/20 03:59:50;;;;;;;;;;;;;;;19.26;43.43;103001.91;7283752;19;152955;-49
2022/01/20 04:02:17;;;;;;;;;;;;;;;19.21;43.53;102987.84;7282767;19;153414;-50
2022/01/20 04:04:45;;;;;;;;;;;;;;;19.22;43.37;102992.31;7280817;19;152865;-50
2022/01/20 04:07:12;;;;;;;;;;;;;;;19.21;43.61;102986.97;7282990;19;152952;-49
2022/01/20 04:09:39;;;;;;;;;;;;;;;19.18;43.46;102984.66;7290443;19;154023;-49
2022/01/20 04:12:07;;;;;;;;;;;;;;;19.15;43.57;102986.03;7282308;19;154057;-49
2022/01/20 04:14:35;;;;;;;;;;;;;;;19.16;43.28;102998.09;7278741;19;153346;-49
2022/01/20 04:17:04;;;;;;;;;;;;;;;19.12;43.45;103003.34;7286858;19;151718;-50
2022/01/20 04:19:32;;;;;;;;;;;;;;;19.10;43.48;102994.31;7285737;19;152777;-49
2022/01/20 04:22:00;;;;;;;;;;;;;;;19.09;43.36;103001.03;7284821;19;153849;-50
2022/01/20 04:24:27;;;;;;;;;;;;;;;19.07;43.61;103008.84;7282758;19;151837;-50
2022/01/20 04:26:55;;;;;;;;;;;;;;;19.05;43.81;103000.66;7282933;19;153409;-49
2022/01/20 04:29:22;;;;;;;;;;;;;;;19.03;43.58;103002.03;7279545;19;154227;-50
2022/01/20 04:31:50;;;;;;;;;;;;;;;19.02;43.91;103009.59;7288120;19;151938;-50
2022/01/20 04:34:17;;;;;;;;;;;;;;;19.00;43.69;103013.72;7280923;19;154326;-49
2022/01/20 04:36:47;;;;;;;;;;;;;;;18.99;43.56;102998.00;7279866;19;152022;-50
2022/01/20 04:39:17;;;;;;;;;;;;;;;18.98;43.57;103001.91;7282663;19;153057;-50
2022/01/20 04:41:44;;;;;;;;;;;;;;;18.96;43.90;102996.56;7279727;19;153502;-50
2022/01/20 04:44:20;;;;;;;;;;;;;;;18.95;43.65;102996.78;7282287;19;151892;-50
2022/01/20 04:46:56;;;;;;;;;;;;;;;18.93;43.92;102999.88;7282278;19;151941;-51
2022/01/20 04:59:50;;;;;;;;;;;;;;;18.94;43.98;103023.13;7286012;19;152758;-50
2022/01/20 05:02:17;;;;;;;;;;;;;;;18.97;44.23;103034.69;7282427;19;153981;-50
2022/01/20 05:04:44;;;;;;;;;;;;;;;19.00;44.15;103036.13;7279551;19;152326;-51
2022/01/20 05:07:19;;;;;;;;;;;;;;;19.03;44.50;103061.69;7283287;19;152931;-50
2022/01/20 05:09:45;;;;;;;;;;;;;;;19.06;45.10;103051.97;7277772;19;154710;-50
2022/01/20 05:12:16;;;;;;;;;;;;;;;19.10;44.62;103050.34;7282197;19;152289;-49
2022/01/20 05:14:43;;;;;;;;;;;;;;;19.15;44.92;103066.44;7283525;19;153036;-49
2022/01/20 05:17:10;;;;;;;;;;;;;;;19.20;44.85;103061.78;7283756;19;151918;-50
2022/01/20 05:19:37;;;;;;;;;;;;;;;19.25;45.05;103056.31;7283920;19;152216;-50
2022/01/20 05:22:04;;;;;;;;;;;;;;;19.32;45.28;103056.13;7278998;19;154021;-50
2022/01/20 05:24:31;;;;;;;;;;;;;;;19.38;45.00;103060.75;7281264;19;151921;-50
2022/01/20 05:26:58;;;;;;;;;;;;;;;19.44;45.46;103060.63;7279962;19;153121;-50
2022/01/20 05:29:25;;;;;;;;;;;;;;;19.51;45.34;103061.34;7279049;19;153234;-50
2022/01/20 05:31:52;;;;;;;;;;;;;;;19.58;45.22;103066.78;7279861;19;152926;-50
2022/01/20 05:34:20;;;;;;;;;;;;;;;19.66;45.07;103057.16;7282358;19;152287;-50
2022/01/20 05:36:48;;;;;;;;;;;;;;;19.72;45.11;103068.19;7288990;19;153430;-50
2022/01/20 05:39:15;;;;;;;;;;;;;;;19.78;44.72;103067.19;7278203;19;152722;-50
2022/01/20 05:41:42;;;;;;;;;;;;;;;19.86;44.44;103074.34;7273395;19;153429;-50
2022/01/20 05:44:09;;;;;;;;;;;;;;;19.91;44.43;103066.88;7281958;19;152192;-50
2022/01/20 05:46:43;;;;;;;;;;;;;;;19.99;44.68;103066.44;7281863;19;153637;-49
2022/01/20 05:49:10;;;;;;;;;;;;;;;20.06;44.50;103063.50;7278070;19;152415;-50
2022/01/20 05:51:38;;;;;;;;;;;;;;;20.12;44.47;103067.25;7280413;19;152107;-50
2022/01/20 05:54:07;;;;;;;;;;;;;;;20.19;44.08;103068.78;7281064;19;153557;-49
2022/01/20 05:56:34;;;;;;;;;;;;;;;20.25;44.18;103080.94;7278437;19;153923;-49
2022/01/20 05:59:01;;;;;;;;;;;;;;;20.31;44.01;103074.31;7286821;19;151860;-50
2022/01/20 06:01:28;;;;;;;;;;;;;;;20.35;43.93;103070.75;7277470;19;153865;-50
2022/01/20 06:03:55;;;;;;;;;;;;;;;20.42;43.47;103073.41;7280130;19;151773;-50
2022/01/20 06:06:22;;;;;;;;;;;;;;;20.47;43.29;103073.50;7281676;19;152720;-50
2022/01/20 06:08:49;;;;;;;;;;;;;;;20.53;43.59;103082.84;7277454;19;153346;-49
2022/01/20 06:11:16;;;;;;;;;;;;;;;20.58;43.14;103077.31;7278023;19;151876;-49
2022/01/20 06:13:43;;;;;;;;;;;;;;;20.64;43.35;103085.56;7276531;19;153154;-50
2022/01/20 06:16:10;;;;;;;;;;;;;;;20.68;42.81;103081.13;7273173;19;154846;-50
2022/01/20 06:18:37;;;;;;;;;;;;;;;20.74;43.11;103073.63;7283454;19;151896;-50
2022/01/20 06:21:04;;;;;;;;;;;;;;;20.78;42.77;103063.56;7285721;19;153749;-50
2022/01/20 06:23:31;;;;;;;;;;;;;;;20.83;42.96;103075.75;7279651;19;151829;-50
2022/01/20 06:26:02;;;;;;;;;;;;;;;20.89;42.78;103081.44;7279133;19;152319;-50
2022/01/20 06:28:29;;;;;;;;;;;;;;;20.94;42.66;103081.50;7274757;19;152442;-50
2022/01/20 06:30:56;;;;;;;;;;;;;;;20.99;42.48;103089.97;7277991;19;152472;-50
2022/01/20 06:33:23;;;;;;;;;;;;;;;21.04;42.04;103088.09;7282921;19;151818;-49
2022/01/20 06:35:50;;;;;;;;;;;;;;;21.08;42.21;103089.28;7275713;19;154251;-50
2022/01/20 06:38:18;;;;;;;;;;;;;;;21.13;42.11;103092.19;7279077;19;152011;-49
2022/01/20 06:40:45;;;;;;;;;;;;;;;21.16;42.13;103090.84;7277281;19;152282;-49
2022/01/20 06:43:12;;;;;;;;;;;;;;;21.20;41.86;103086.41;7285844;19;152237;-50
2022/01/20 06:45:39;;;;;;;;;;;;;;;21.24;42.02;103094.06;7277053;19;153829;-50
2022/01/20 06:48:06;;;;;;;;;;;;;;;21.27;41.96;103104.75;7278234;19;153438;-50
2022/01/20 06:50:33;;;;;;;;;;;;;;;21.32;41.64;103111.56;7277157;19;151998;-49
2022/01/20 06:53:00;;;;;;;;;;;;;;;21.35;41.66;103105.44;7279229;19;152759;-50
2022/01/20 06:55:27;;;;;;;;;;;;;;;21.41;41.42;103115.63;7275184;19;152706;-50
2022/01/20 06:57:54;;;;;;;;;;;;;;;21.43;41.87;103122.69;7279528;19;152405;-50
2022/01/20 07:00:23;;;;;;;;;;;;;;;21.47;41.39;103121.06;7278028;19;153383;-49
2022/01/20 07:03:03;;;;;;;;;;;;;;;21.51;41.62;103129.81;7286927;19;153774;-49
2022/01/20 07:05:30;;;;;;;;;;;;;;;21.55;41.39;103133.81;7279111;19;154918;-50
2022/01/20 07:07:58;;;;;;;;;;;;;;;21.58;41.31;103145.38;7276367;19;153915;-50
2022/01/20 07:10:26;;;;;;;;;;;;;;;21.61;41.66;103142.06;7277011;19;152296;-50
2022/01/20 07:12:56;;;;;;;;;;;;;;;21.65;41.89;103143.22;7279893;19;151985;-50
2022/01/20 07:15:24;;;;;;;;;;;;;;;21.68;41.61;103153.94;7275370;19;152381;-49
2022/01/20 07:17:54;;;;;;;;;;;;;;;21.72;41.62;103152.31;7274904;19;152407;-50
2022/01/20 07:20:21;;;;;;;;;;;;;;;21.76;41.71;103152.63;7279121;19;153601;-51
2022/01/20 07:22:48;;;;;;;;;;;;;;;21.79;41.68;103152.13;7277895;19;153901;-51
2022/01/20 07:25:15;;;;;;;;;;;;;;;21.82;41.35;103145.09;7287631;19;151739;-51
2022/01/20 07:27:43;;;;;;;;;;;;;;;21.85;41.63;103136.97;7280264;19;154248;-51
2022/01/20 07:30:32;;;;;;;;;;;;;;;21.88;41.35;103153.34;7279194;19;152163;-51
2022/01/20 07:33:03;;;;;;;;;;;;;;;21.93;41.43;103149.78;7279403;19;154224;-51
2022/01/20 07:35:36;;;;;;;;;;;;;;;21.95;41.46;103142.75;7276230;19;153250;-51
2022/01/20 07:38:04;;;;;;;;;;;;;;;21.99;41.32;103157.13;7276180;19;152082;-51
2022/01/20 07:40:32;;;;;;;;;;;;;;;22.01;41.19;103149.28;7276966;19;151998;-51
2022/01/20 07:42:59;;;;;;;;;;;;;;;22.04;41.10;103162.81;7278235;19;152286;-51
2022/01/20 07:45:28;;;;;;;;;;;;;;;22.07;41.15;103165.13;7279880;19;153486;-51
2022/01/20 07:47:56;;;;;;;;;;;;;;;22.11;40.81;103157.84;7291542;19;153471;-52
2022/01/20 07:50:24;;;;;;;;;;;;;;;21.78;35.40;103156.03;7284743;19;151803;-52
2022/01/20 07:52:54;;;;;;;;;;;;;;;21.85;36.04;103165.13;7286902;19;153324;-52
2022/01/20 07:55:24;;;;;;;;;;;;;;;21.89;36.33;103166.31;7285509;19;153430;-51
2022/01/20 07:57:51;;;;;;;;;;;;;;;21.91;36.77;103168.84;7287615;19;152508;-52
2022/01/20 08:00:22;;;;;;;;;;;;;;;21.92;36.86;103167.75;7284737;19;152961;-52
2022/01/20 08:02:51;;;;;;;;;;;;;;;21.92;36.33;103185.47;7285680;19;153465;-52
2022/01/20 08:05:20;;;;;;;;;;;;;;;21.91;36.86;103178.13;7285463;19;152093;-52
2022/01/20 08:07:48;;;;;;;;;;;;;;;21.92;36.76;103179.00;7283629;19;153815;-53
2022/01/20 08:10:15;;;;;;;;;;;;;;;21.91;36.79;103182.91;7289487;19;154359;-52
2022/01/20 08:13:04;;;;;;;;;;;;;;;21.90;36.52;103189.66;7287312;19;152844;-53
2022/01/20 08:15:35;;;;;;;;;;;;;;;21.88;36.66;103192.75;7281821;19;152423;-52
2022/01/20 08:18:02;;;;;;;;;;;;;;;21.88;36.67;103201.19;7279606;19;153222;-53
2022/01/20 08:20:29;;;;;;;;;;;;;;;21.87;36.69;103205.13;7280331;19;153841;-52
2022/01/20 08:22:56;;;;;;;;;;;;;;;21.86;36.61;103214.66;7285212;19;153292;-52
2022/01/20 08:25:24;;;;;;;;;;;;;;;21.85;36.56;103217.75;7283571;19;152015;-52
2022/01/20 08:27:51;;;;;;;;;;;;;;;21.86;36.56;103219.44;7285120;19;152962;-52
2022/01/20 08:35:39;;;;;;;;;;;;;;;21.83;36.27;103242.50;7280254;19;152993;-52
2022/01/20 08:38:07;;;;;;;;;;;;;;;21.81;36.57;103239.06;7282426;19;151990;-52
2022/01/20 08:40:35;;;;;;;;;;;;;;;21.78;36.53;103248.03;7282894;19;153033;-52
2022/01/20 08:45:44;;;;;;;;;;;;;;;21.73;36.27;103251.66;7278507;19;152772;-52
2022/01/20 08:48:13;;;;;;;;;;;;;;;21.69;36.33;103254.13;7280458;19;153314;-51
2022/01/20 08:50:42;;;;;;;;;;;;;;;21.67;36.09;103269.56;7278964;19;153631;-52
2022/01/20 08:53:09;;;;;;;;;;;;;;;21.63;36.01;103271.19;7281788;19;152020;-52
2022/01/20 08:55:37;;;;;;;;;;;;;;;21.59;36.20;103282.13;7281272;19;153717;-52
2022/01/20 08:58:05;;;;;;;;;;;;;;;21.58;36.24;103273.94;7277695;19;153086;-52
2022/01/20 09:00:33;;;;;;;;;;;;;;;21.55;36.11;103285.72;7285649;19;152446;-52
2022/01/20 09:03:00;;;;;;;;;;;;;;;21.49;35.96;103284.78;7282335;19;154760;-52
2022/01/20 09:05:28;;;;;;;;;;;;;;;21.46;35.98;103284.44;7280138;19;151675;-52
2022/01/20 09:07:55;;;;;;;;;;;;;;;21.42;36.21;103292.56;7282121;19;152622;-52
2022/01/20 09:10:22;;;;;;;;;;;;;;;21.39;36.30;103295.88;7279074;19;153964;-52
2022/01/20 09:15:29;;;;;;;;;;;;;;;21.31;36.21;103296.31;7285555;19;152662;-52
2022/01/20 09:17:57;;;;;;;;;;;;;;;21.27;35.96;103301.59;7276418;19;152347;-53
2022/01/20 09:20:24;;;;;;;;;;;;;;;21.24;35.82;103301.25;7275146;19;153353;-52
2022/01/20 09:22:54;;;;;;;;;;;;;;;21.22;35.88;103309.09;7276152;19;153546;-52
2022/01/20 09:25:23;;;;;;;;;;;;;;;21.20;36.24;103309.34;7278371;19;151989;-52
2022/01/20 09:27:51;;;;;;;;;;;;;;;21.20;36.10;103322.56;7276213;19;153185;-52
2022/01/20 09:30:19;;;;;;;;;;;;;;;21.20;36.25;103325.38;7276819;19;152286;-52
2022/01/20 09:35:30;;;;;;;;;;;;;;;21.22;36.27;103320.31;7280447;19;152564;-52
2022/01/20 09:37:57;;;;;;;;;;;;;;;21.24;36.36;103329.38;7287504;19;153791;-52
2022/01/20 09:40:25;;;;;;;;;;;;;;;21.26;36.07;103327.13;7280703;19;153381;-52
2022/01/20 09:45:33;;;;;;;;;;;;;;;21.31;35.90;103335.66;7279731;19;152568;-53
2022/01/20 09:48:01;;;;;;;;;;;;;;;21.32;36.16;103337.38;7283925;19;153341;-53
2022/01/20 09:50:28;;;;;;;;;;;;;;;21.35;36.08;103347.28;7284993;19;152388;-52
2022/01/20 09:53:19;;;;;;;;;;;;;;;21.35;36.17;103350.09;7284311;19;151705;-52
2022/01/20 09:55:52;;;;;;;;;;;;;;;21.35;36.02;103345.28;7281805;19;152482;-52
2022/01/20 09:58:19;;;;;;;;;;;;;;;21.36;35.99;103344.19;7282607;19;154264;-52
2022/01/20 10:00:46;;;;;;;;;;;;;;;21.36;35.99;103348.97;7289296;19;154199;-52
2022/01/20 10:03:16;;;;;;;;;;;;;;;21.36;35.63;103348.97;7283613;19;153452;-52
2022/01/20 10:05:49;;;;;;;;;;;;;;;21.36;35.76;103355.44;7283246;19;151584;-52
2022/01/20 10:08:21;;;;;;;;;;;;;;;21.36;35.59;103358.25;7281645;19;152576;-53
2022/01/20 10:11:09;;;;;;;;;;;;;;;21.36;35.84;103363.88;7281497;19;154066;-51
2022/01/20 10:13:50;;;;;;;;;;;;;;;21.36;35.48;103365.84;7272410;19;151904;-52
2022/01/20 10:19:00;;;;;;;;;;;;;;;21.34;35.78;103379.31;7277106;19;152770;-55
2022/01/20 10:21:31;;;;;;;;;;;;;;;21.34;35.43;103390.56;7278480;19;151930;-52
2022/01/20 10:24:17;;;;;;;;;;;;;;;21.31;35.40;103389.09;7287153;19;152874;-52
2022/01/20 10:26:44;;;;;;;;;;;;;;;21.30;35.59;103384.59;7283362;19;152726;-52
2022/01/20 10:29:14;;;;;;;;;;;;;;;21.28;35.82;103392.44;7283518;19;152590;-52
2022/01/20 10:31:44;;;;;;;;;;;;;;;21.27;35.43;103397.19;7280326;19;153248;-52
2022/01/20 10:34:30;;;;;;;;;;;;;;;21.26;35.30;103400.25;7278309;19;152130;-53
2022/01/20 10:37:25;;;;;;;;;;;;;;;21.23;35.31;103403.59;7279417;19;152142;-53
2022/01/20 10:50:51;;;;;;;;;;;;;;;21.12;35.47;103432.59;7281445;19;152071;-52
2022/01/20 10:53:23;;;;;;;;;;;;;;;21.09;35.54;103431.13;7278417;19;153359;-52
2022/01/20 10:55:51;;;;;;;;;;;;;;;21.07;35.70;103429.69;7277054;19;152851;-52
2022/01/20 10:58:22;;;;;;;;;;;;;;;21.04;35.73;103442.25;7278608;19;153446;-53
2022/01/20 11:00:50;;;;;;;;;;;;;;;21.03;35.84;103434.94;7277235;19;152823;-52
2022/01/20 11:03:17;;;;;;;;;;;;;;;21.03;35.61;103442.53;7280340;19;152701;-52
2022/01/20 11:05:48;;;;;;;;;;;;;;;21.04;35.49;103441.41;7279299;19;152711;-53
2022/01/20 11:08:15;;;;;;;;;;;;;;;21.03;35.66;103446.16;7284064;19;153969;-52
2022/01/20 11:10:42;;;;;;;;;;;;;;;21.05;35.57;103449.59;7279519;19;153190;-52
2022/01/20 11:13:11;;;;;;;;;;;;;;;21.07;36.03;103446.56;7280796;19;154276;-51
2022/01/20 11:15:40;;;;;;;;;;;;;;;21.08;35.91;103440.66;7279901;19;152091;-52
2022/01/20 11:18:09;;;;;;;;;;;;;;;21.10;35.86;103441.28;7276858;19;153269;-52
2022/01/20 11:20:45;;;;;;;;;;;;;;;21.12;35.76;103438.22;7274520;19;154051;-52
2022/01/20 11:23:12;;;;;;;;;;;;;;;21.12;35.59;103439.03;7284350;19;151850;-52
2022/01/20 11:25:40;;;;;;;;;;;;;;;21.13;35.53;103431.50;7282508;19;152071;-52
2022/01/20 11:28:08;;;;;;;;;;;;;;;21.13;35.45;103431.50;7282386;19;153801;-52
2022/01/20 11:30:39;;;;;;;;;;;;;;;21.15;35.65;103427.34;7292213;19;152027;-52
2022/01/20 11:33:08;;;;;;;;;;;;;;;21.15;35.46;103418.06;7284031;19;153453;-53
2022/01/20 11:35:36;;;;;;;;;;;;;;;21.15;35.35;103413.28;7283619;19;151859;-52
2022/01/20 11:38:02;;;;;;;;;;;;;;;21.15;35.45;103413.28;7285633;19;153411;-52
2022/01/20 11:40:29;;;;;;;;;;;;;;;21.15;35.13;103412.44;7285043;19;153398;-52
2022/01/20 11:42:57;;;;;;;;;;;;;;;21.15;35.29;103413.28;7285543;19;151675;-52
2022/01/20 11:45:32;;;;;;;;;;;;;;;21.14;35.50;103407.91;7282915;19;152709;-52
2022/01/20 11:48:09;;;;;;;;;;;;;;;21.13;35.46;103409.88;7287024;19;153642;-52
2022/01/20 11:50:36;;;;;;;;;;;;;;;21.12;35.24;103410.94;7284480;19;152339;-52
2022/01/20 11:53:12;;;;;;;;;;;;;;;21.13;35.46;103406.19;7285791;19;153744;-52
2022/01/20 11:55:43;;;;;;;;;;;;;;;21.13;35.52;103397.75;7281163;19;151933;-52
2022/01/20 11:58:11;;;;;;;;;;;;;;;21.14;35.40;103400.34;7282745;19;153972;-52
2022/01/20 12:00:37;;;;;;;;;;;;;;;21.15;35.23;103390.81;7283350;19;154045;-52
2022/01/20 12:03:14;;;;;;;;;;;;;;;21.19;35.25;103392.00;7284075;19;152225;-52
2022/01/20 12:05:42;;;;;;;;;;;;;;;21.22;35.65;103402.72;7284537;19;152698;-52
2022/01/20 12:08:10;;;;;;;;;;;;;;;21.24;35.17;103392.09;7280109;19;154599;-53
2022/01/20 12:10:39;;;;;;;;;;;;;;;21.29;35.19;103405.38;7283638;19;151947;-52
2022/01/20 12:13:08;;;;;;;;;;;;;;;21.31;35.42;103397.53;7279832;19;152580;-52
2022/01/20 12:15:48;;;;;;;;;;;;;;;21.36;35.34;103402.41;7291387;19;154146;-53
2022/01/20 12:18:14;;;;;;;;;;;;;;;21.40;35.43;103412.03;7282774;19;153909;-52
2022/01/20 12:20:41;;;;;;;;;;;;;;;21.43;35.06;103401.16;7279269;19;153942;-51
2022/01/20 12:23:08;;;;;;;;;;;;;;;21.46;35.46;103386.56;7281434;19;152154;-51
2022/01/20 12:25:36;;;;;;;;;;;;;;;21.50;35.22;103393.38;7282770;19;152755;-51
2022/01/20 12:28:23;;;;;;;;;;;;;;;21.55;35.49;103392.59;7280601;19;155112;-52
2022/01/20 12:30:50;;;;;;;;;;;;;;;21.57;35.00;103393.22;7284083;19;151976;-53
2022/01/20 12:33:19;;;;;;;;;;;;;;;21.61;35.32;103398.06;7278762;19;153627;-53
2022/01/20 12:35:48;;;;;;;;;;;;;;;21.65;35.22;103396.44;7280363;19;153679;-53
2022/01/20 12:38:15;;;;;;;;;;;;;;;21.68;34.81;103390.31;7288812;19;152098;-53
2022/01/20 12:40:42;;;;;;;;;;;;;;;21.72;35.07;103376.56;7280940;19;153931;-53
2022/01/20 12:43:09;;;;;;;;;;;;;;;21.76;35.24;103385.38;7281494;19;151635;-53
2022/01/20 12:48:13;;;;;;;;;;;;;;;21.80;34.85;103384.59;7280453;19;153802;-53
2022/01/20 12:50:50;;;;;;;;;;;;;;;21.82;34.90;103381.50;7281820;19;153034;-53
2022/01/20 12:53:18;;;;;;;;;;;;;;;21.85;34.57;103389.44;7281586;19;152568;-53
2022/01/20 12:55:52;;;;;;;;;;;;;;;21.85;34.82;103392.25;7282834;19;153603;-53
2022/01/20 12:58:18;;;;;;;;;;;;;;;21.87;34.96;103395.66;7283991;19;152365;-53
2022/01/20 13:00:55;;;;;;;;;;;;;;;21.88;34.86;103391.72;7291072;19;152730;-53
2022/01/20 13:03:32;;;;;;;;;;;;;;;21.88;34.68;103388.91;7283285;19;151692;-53
2022/01/20 13:05:59;;;;;;;;;;;;;;;21.89;34.95;103401.88;7284329;19;152746;-53
2022/01/20 13:08:31;;;;;;;;;;;;;;;21.87;34.68;103392.84;7280515;19;153410;-53
2022/01/20 13:11:02;;;;;;;;;;;;;;;21.85;34.65;103384.63;7281627;19;152240;-52
2022/01/20 13:13:30;;;;;;;;;;;;;;;21.87;34.75;103385.25;7277809;19;153614;-52
2022/01/20 13:15:57;;;;;;;;;;;;;;;21.84;34.81;103382.97;7280876;19;153464;-53
2022/01/20 13:18:24;;;;;;;;;;;;;;;21.85;34.65;103389.44;7281794;19;152521;-54
2022/01/20 13:20:53;;;;;;;;;;;;;;;21.85;34.31;103393.09;7287493;19;153090;-53
2022/01/20 13:25:47;;;;;;;;;;;;;;;21.84;34.30;103391.41;7280721;19;152592;-53
2022/01/20 13:28:16;;;;;;;;;;;;;;;21.84;34.51;103387.75;7278659;19;154398;-53
2022/01/20 13:30:47;;;;;;;;;;;;;;;21.83;34.44;103400.09;7281999;19;151990;-53
2022/01/20 13:33:16;;;;;;;;;;;;;;;21.80;34.55;103400.63;7279822;19;152832;-53
2022/01/20 13:35:44;;;;;;;;;;;;;;;21.77;34.65;103399.16;7277973;19;154153;-53
2022/01/20 13:38:11;;;;;;;;;;;;;;;21.74;34.16;103388.44;7280290;19;152301;-53
2022/01/20 13:40:40;;;;;;;;;;;;;;;21.70;34.17;103392.88;7279939;19;153192;-53
2022/01/20 13:45:46;;;;;;;;;;;;;;;21.65;34.57;103398.41;7279091;19;153136;-53
2022/01/20 13:48:14;;;;;;;;;;;;;;;21.61;34.39;103405.66;7280074;19;154144;-52
2022/01/20 13:50:42;;;;;;;;;;;;;;;21.58;34.46;103398.56;7281097;19;152430;-53
2022/01/20 13:53:13;;;;;;;;;;;;;;;21.54;34.43;103403.00;7279073;19;153699;-53
2022/01/20 13:55:40;;;;;;;;;;;;;;;21.50;34.54;103396.19;7279219;19;154170;-53
2022/01/20 13:58:07;;;;;;;;;;;;;;;21.48;34.34;103406.00;7279683;19;152050;-53
2022/01/20 14:00:35;;;;;;;;;;;;;;;21.44;34.48;103383.13;7280945;19;151698;-53
2022/01/20 14:03:05;;;;;;;;;;;;;;;21.41;34.32;103382.78;7282350;19;153956;-53
2022/01/20 14:05:33;;;;;;;;;;;;;;;21.36;34.05;103382.72;7288120;19;151939;-52
2022/01/20 14:08:01;;;;;;;;;;;;;;;21.34;34.43;103387.75;7280634;19;153370;-52
2022/01/20 14:10:28;;;;;;;;;;;;;;;21.29;34.11;103377.25;7278583;19;151978;-52
2022/01/20 14:12:56;;;;;;;;;;;;;;;21.26;34.25;103389.00;7278592;19;152599;-52
2022/01/20 14:15:25;;;;;;;;;;;;;;;21.21;34.30;103388.94;7277647;19;153479;-53
2022/01/20 14:17:54;;;;;;;;;;;;;;;21.17;34.55;103394.19;7281390;19;152621;-53